Time;durP1;ratioP1;P1;durP2;ratioP2;P2;SDS_P1;SDS_P2;PMS_P1;PMS_P2;Temp;Humidity;BMP_temperature;BMP_pressure;BME280_temperature;BME280_humidity;BME280_pressure;Samples;Min_cycle;Max_cycle;Signal;HPM_P1;HPM_P2
2023/09/08 00:01:32;;;;;;;5.43;3.70;;;;;;;26.46;43.81;101408.28;5073671;28;20043;-61
2023/09/08 00:03:57;;;;;;;6.65;3.67;;;;;;;26.41;43.47;101399.84;5073863;28;20110;-62
2023/09/08 00:06:23;;;;;;;4.63;3.38;;;;;;;26.39;44.18;101401.97;5072420;28;20021;-62
2023/09/08 00:08:48;;;;;;;5.18;3.28;;;;;;;26.37;43.71;101401.34;5072493;28;20116;-63
2023/09/08 00:11:13;;;;;;;4.97;3.05;;;;;;;26.32;43.33;101403.91;5072378;28;20051;-62
2023/09/08 00:13:39;;;;;;;5.90;3.65;;;;;;;26.30;43.94;101397.81;5072477;28;20035;-62
2023/09/08 00:16:06;;;;;;;5.18;3.88;;;;;;;26.24;43.93;101395.91;5072559;28;20040;-62
2023/09/08 00:18:32;;;;;;;8.35;3.72;;;;;;;26.23;44.00;101405.22;5073720;28;20531;-62
2023/09/08 00:20:58;;;;;;;4.88;3.63;;;;;;;26.16;43.67;101412.66;5072226;28;20124;-62
2023/09/08 00:23:23;;;;;;;3.45;3.13;;;;;;;26.14;43.66;101412.00;5055414;28;20454;-61
2023/09/08 00:25:49;;;;;;;6.43;4.03;;;;;;;26.08;43.93;101415.56;5073139;28;20044;-61
2023/09/08 00:28:15;;;;;;;8.68;3.72;;;;;;;26.02;44.17;101414.53;5072218;28;20111;-61
2023/09/08 00:30:40;;;;;;;4.88;3.67;;;;;;;26.01;44.18;101421.97;5073584;28;20032;-62
2023/09/08 00:33:08;;;;;;;13.93;4.05;;;;;;;25.98;44.05;101416.91;5072512;28;20036;-61
2023/09/08 00:35:34;;;;;;;8.20;3.65;;;;;;;25.97;44.48;101417.94;5073615;28;20043;-63
2023/09/08 00:38:00;;;;;;;6.32;3.78;;;;;;;25.94;44.41;101414.78;5072313;28;20028;-61
2023/09/08 00:40:27;;;;;;;8.00;4.00;;;;;;;25.91;44.70;101415.19;5072210;28;20039;-61
2023/09/08 00:42:53;;;;;;;4.50;3.50;;;;;;;25.87;44.71;101414.81;5073067;28;20093;-62
2023/09/08 00:45:18;;;;;;;4.57;3.50;;;;;;;25.85;44.14;101418.84;5072363;28;20535;-63
2023/09/08 00:47:43;;;;;;;7.43;4.20;;;;;;;25.82;44.46;101424.75;5073293;28;20032;-62
2023/09/08 00:50:09;;;;;;;12.98;4.65;;;;;;;25.78;44.55;101421.59;5072144;28;20025;-63
2023/09/08 00:52:34;;;;;;;7.10;3.47;;;;;;;25.73;45.01;101421.38;5073357;28;20036;-62
2023/09/08 00:55:00;;;;;;;5.13;3.85;;;;;;;25.71;44.63;101423.47;5072178;28;20016;-63
2023/09/08 00:57:25;;;;;;;3.88;3.40;;;;;;;25.72;44.90;101416.94;5072275;28;20063;-61
2023/09/08 00:59:51;;;;;;;6.47;3.83;;;;;;;25.66;45.18;101416.94;5055595;28;20128;-62
2023/09/08 01:02:16;;;;;;;5.90;3.55;;;;;;;25.65;44.92;101413.38;5073080;28;20078;-62
2023/09/08 01:04:43;;;;;;;5.25;3.75;;;;;;;25.60;44.62;101413.16;5073118;28;20028;-62
2023/09/08 01:07:09;;;;;;;6.88;3.97;;;;;;;25.57;44.72;101416.34;5071831;28;20021;-62
2023/09/08 01:09:36;;;;;;;6.97;3.70;;;;;;;25.55;45.01;101414.84;5071828;28;20044;-62
2023/09/08 01:12:04;;;;;;;5.40;4.03;;;;;;;25.50;45.14;101418.25;5071953;28;20098;-62
2023/09/08 01:14:29;;;;;;;5.43;4.03;;;;;;;25.47;45.06;101407.69;5072058;28;20082;-63
2023/09/08 01:16:54;;;;;;;5.47;3.67;;;;;;;25.42;45.20;101415.69;5073416;28;20036;-62
2023/09/08 01:19:20;;;;;;;10.15;3.45;;;;;;;25.39;45.45;101418.84;5054978;28;20024;-62
2023/09/08 01:22:15;;;;;;;6.75;3.60;;;;;;;25.40;45.03;101417.81;5071767;28;20048;-62
2023/09/08 01:24:43;;;;;;;6.85;3.92;;;;;;;25.36;45.13;101411.03;5059597;28;20035;-64
2023/09/08 01:27:10;;;;;;;4.40;3.65;;;;;;;25.32;45.26;101412.53;5072865;28;20032;-63
2023/09/08 01:29:38;;;;;;;7.07;3.75;;;;;;;25.34;45.56;101407.66;5054739;28;20028;-61
2023/09/08 01:32:04;;;;;;;7.35;3.47;;;;;;;25.34;45.29;101414.00;5071909;28;20062;-63
2023/09/08 01:34:30;;;;;;;7.05;3.78;;;;;;;25.31;45.18;101414.44;5055227;28;20035;-63
2023/09/08 01:36:56;;;;;;;5.90;3.65;;;;;;;25.28;45.60;101419.47;5070989;28;20036;-62
2023/09/08 01:39:22;;;;;;;6.47;3.80;;;;;;;25.25;45.39;101414.41;5072163;28;20033;-62
2023/09/08 01:41:47;;;;;;;5.75;3.88;;;;;;;25.19;45.44;101409.78;5071631;28;20036;-62
2023/09/08 01:44:12;;;;;;;4.47;3.55;;;;;;;25.17;45.44;101406.41;5054732;28;20032;-62
2023/09/08 01:46:39;;;;;;;7.32;4.53;;;;;;;25.15;45.53;101414.84;5071428;28;20037;-62
2023/09/08 01:49:04;;;;;;;6.53;4.55;;;;;;;25.13;45.32;101403.22;5072876;28;20060;-62
2023/09/08 01:51:29;;;;;;;5.00;3.75;;;;;;;25.10;45.70;101405.56;5072163;28;20115;-63
2023/09/08 01:53:55;;;;;;;6.93;3.58;;;;;;;25.05;45.42;101405.31;5071658;28;20029;-62
2023/09/08 01:56:20;;;;;;;6.10;4.05;;;;;;;25.02;45.70;101400.25;5071372;28;20052;-61
2023/09/08 01:58:46;;;;;;;6.72;3.58;;;;;;;25.01;45.95;101401.34;5071209;28;20041;-62
2023/09/08 02:01:11;;;;;;;6.40;3.95;;;;;;;24.99;45.95;101403.41;5071496;28;20029;-61
2023/09/08 02:03:36;;;;;;;6.00;3.95;;;;;;;24.97;45.76;101402.78;5071235;28;20040;-61
2023/09/08 02:06:02;;;;;;;7.28;3.67;;;;;;;24.95;45.97;101396.69;5072770;28;20485;-61
2023/09/08 02:08:27;;;;;;;7.13;4.47;;;;;;;24.90;45.96;101394.59;5071113;28;20037;-61
2023/09/08 02:10:52;;;;;;;5.47;3.70;;;;;;;24.88;45.55;101394.78;5072664;28;20035;-61
2023/09/08 02:13:18;;;;;;;6.97;3.30;;;;;;;24.85;45.49;101391.59;5071205;28;20044;-62
2023/09/08 02:15:44;;;;;;;5.80;3.80;;;;;;;24.82;45.86;101392.00;5072690;28;20404;-61
2023/09/08 02:18:09;;;;;;;7.65;4.40;;;;;;;24.78;46.26;101396.22;5072374;28;20029;-62
2023/09/08 02:20:34;;;;;;;6.93;3.38;;;;;;;24.73;45.85;101396.84;5054425;28;20040;-62
2023/09/08 02:23:05;;;;;;;7.10;3.95;;;;;;;24.74;46.11;101394.91;5072480;28;20059;-61
2023/09/08 02:25:30;;;;;;;9.02;3.97;;;;;;;24.71;45.97;101396.19;5071357;28;20033;-61
2023/09/08 02:27:56;;;;;;;5.88;4.20;;;;;;;24.68;46.27;101382.88;5072302;28;20162;-61
2023/09/08 02:30:21;;;;;;;7.05;4.05;;;;;;;24.65;46.37;101383.31;5070923;28;20032;-62
2023/09/08 02:32:47;;;;;;;5.25;3.60;;;;;;;24.63;46.12;101382.69;5070916;28;20442;-61
2023/09/08 02:35:13;;;;;;;6.07;4.07;;;;;;;24.59;46.35;101392.38;5072120;28;20028;-61
2023/09/08 02:37:38;;;;;;;5.32;3.72;;;;;;;24.58;45.70;101389.81;5070733;28;20508;-62
2023/09/08 02:40:05;;;;;;;6.97;4.20;;;;;;;24.54;45.79;101386.66;5072142;28;20037;-61
2023/09/08 02:42:31;;;;;;;5.60;4.13;;;;;;;24.52;46.72;101396.97;5071161;28;20040;-61
2023/09/08 02:44:58;;;;;;;6.22;3.63;;;;;;;24.48;46.77;101392.97;5072132;28;20082;-62
2023/09/08 02:47:23;;;;;;;7.25;3.88;;;;;;;24.45;46.03;101396.13;5072385;28;20490;-62
2023/09/08 02:49:49;;;;;;;6.57;3.58;;;;;;;24.43;46.80;101392.72;5074825;28;20063;-61
2023/09/08 02:52:15;;;;;;;9.80;4.13;;;;;;;24.40;46.41;101393.13;5075756;28;20040;-62
2023/09/08 02:54:40;;;;;;;6.82;3.97;;;;;;;24.40;46.55;101398.63;5075635;28;20024;-61
2023/09/08 02:57:06;;;;;;;5.25;3.45;;;;;;;24.38;46.00;101395.25;5074182;28;20101;-62
2023/09/08 02:59:31;;;;;;;5.28;4.05;;;;;;;24.37;46.69;101390.84;5057941;28;20037;-61
2023/09/08 03:01:57;;;;;;;4.88;3.70;;;;;;;24.33;46.63;101397.75;5074195;28;20036;-62
2023/09/08 03:04:22;;;;;;;8.15;3.58;;;;;;;24.33;46.13;101392.28;5074317;28;20037;-61
2023/09/08 03:06:47;;;;;;;6.53;3.72;;;;;;;24.31;46.36;101392.50;5074216;28;20032;-62
2023/09/08 03:09:13;;;;;;;7.25;4.32;;;;;;;24.31;46.61;101392.50;5075718;28;20036;-61
2023/09/08 03:11:38;;;;;;;5.53;4.28;;;;;;;24.29;46.64;101397.31;5075437;28;20446;-61
2023/09/08 03:14:04;;;;;;;5.10;3.38;;;;;;;24.28;46.68;101403.00;5075609;28;20036;-61
2023/09/08 03:16:30;;;;;;;5.20;3.58;;;;;;;24.24;46.43;101394.34;5074604;28;20033;-62
2023/09/08 03:18:55;;;;;;;8.50;4.38;;;;;;;24.18;46.83;101392.44;5073998;28;20051;-62
2023/09/08 03:21:20;;;;;;;6.40;4.35;;;;;;;24.17;46.75;101384.44;5074970;28;20040;-62
2023/09/08 03:23:46;;;;;;;7.25;4.18;;;;;;;24.17;47.09;101398.13;5075223;28;20040;-62
2023/09/08 03:26:13;;;;;;;5.72;3.72;;;;;;;24.15;46.42;101383.78;5075136;28;20519;-61
2023/09/08 03:28:39;;;;;;;6.63;4.05;;;;;;;24.13;46.45;101388.63;5073730;28;20037;-62
2023/09/08 03:31:05;;;;;;;6.72;3.85;;;;;;;24.11;46.58;101387.97;5073839;28;20078;-62
2023/09/08 03:33:30;;;;;;;7.57;4.05;;;;;;;24.09;46.63;101388.16;5073745;28;20032;-62
2023/09/08 03:35:56;;;;;;;8.80;4.38;;;;;;;24.07;46.98;101382.03;5074794;28;20037;-62
2023/09/08 03:38:22;;;;;;;8.90;3.90;;;;;;;24.05;46.49;101384.13;5057120;28;20040;-61
2023/09/08 03:40:47;;;;;;;4.57;3.75;;;;;;;24.04;47.01;101370.63;5074793;28;20419;-61
2023/09/08 03:43:12;;;;;;;6.32;4.03;;;;;;;24.03;47.03;101379.91;5073362;28;20044;-61
2023/09/08 03:45:38;;;;;;;7.80;4.28;;;;;;;23.98;47.04;101376.94;5073489;28;20097;-61
2023/09/08 03:48:03;;;;;;;6.40;4.53;;;;;;;23.96;46.88;101368.94;5074763;28;20438;-61
2023/09/08 03:50:29;;;;;;;6.57;3.80;;;;;;;23.94;47.05;101368.28;5073360;28;20084;-61
2023/09/08 03:52:55;;;;;;;6.43;3.90;;;;;;;23.95;46.84;101378.22;5073434;28;20040;-61
2023/09/08 03:55:20;;;;;;;6.82;3.78;;;;;;;23.93;46.88;101379.44;5074670;28;20408;-61
2023/09/08 03:57:46;;;;;;;7.43;4.55;;;;;;;23.90;46.90;101377.13;5073291;28;20404;-61
2023/09/08 04:00:12;;;;;;;7.50;5.30;;;;;;;23.94;47.45;101383.88;5072781;28;20102;-61
2023/09/08 04:02:37;;;;;;;6.45;3.90;;;;;;;23.91;46.47;101378.78;5056503;28;20036;-61
2023/09/08 04:05:03;;;;;;;5.82;4.25;;;;;;;23.89;47.08;101389.09;5056583;28;20143;-61
2023/09/08 04:07:28;;;;;;;5.40;4.00;;;;;;;23.87;46.65;101385.75;5073153;28;20033;-61
2023/09/08 04:09:54;;;;;;;7.97;4.72;;;;;;;23.86;46.74;101389.50;5073093;28;20456;-61
2023/09/08 04:12:19;;;;;;;6.25;3.78;;;;;;;23.83;47.67;101385.28;5073002;28;20039;-60
2023/09/08 04:14:44;;;;;;;5.72;4.47;;;;;;;23.82;46.66;101390.94;5074670;28;20040;-62
2023/09/08 04:17:10;;;;;;;6.10;3.97;;;;;;;23.78;47.08;101376.84;5073967;28;20055;-61
2023/09/08 04:19:35;;;;;;;5.13;4.15;;;;;;;23.79;46.63;101381.25;5072789;28;20045;-62
2023/09/08 04:22:01;;;;;;;8.45;4.20;;;;;;;23.77;46.94;101384.19;5072824;28;20032;-61
2023/09/08 04:24:26;;;;;;;6.68;3.80;;;;;;;23.74;47.10;101381.88;5074230;28;20085;-62
2023/09/08 04:26:51;;;;;;;6.45;4.15;;;;;;;23.74;47.55;101383.75;5056701;28;20148;-64
2023/09/08 04:29:17;;;;;;;8.98;4.38;;;;;;;23.74;47.06;101386.50;5057056;28;20079;-63
2023/09/08 04:31:42;;;;;;;6.63;4.47;;;;;;;23.71;47.55;101382.25;5075355;28;20029;-62
2023/09/08 04:34:07;;;;;;;5.88;3.90;;;;;;;23.70;47.67;101377.00;5075364;28;20480;-63
2023/09/08 04:36:33;;;;;;;5.53;4.32;;;;;;;23.68;47.67;101381.81;5075029;28;20412;-62
2023/09/08 04:38:58;;;;;;;6.30;4.10;;;;;;;23.66;47.42;101373.81;5074682;28;20051;-62
2023/09/08 04:41:23;;;;;;;5.43;3.92;;;;;;;23.65;47.60;101380.34;5076756;28;20043;-62
2023/09/08 04:43:49;;;;;;;7.28;4.65;;;;;;;23.61;47.55;101373.59;5075323;28;20043;-62
2023/09/08 04:46:14;;;;;;;8.10;4.28;;;;;;;23.61;46.93;101381.78;5058397;28;20115;-62
2023/09/08 04:48:39;;;;;;;10.48;4.55;;;;;;;23.59;47.09;101375.66;5075081;28;20037;-62
2023/09/08 04:51:05;;;;;;;8.60;4.47;;;;;;;23.60;47.64;101379.25;5058213;28;20496;-62
2023/09/08 04:53:30;;;;;;;9.05;4.30;;;;;;;23.60;47.84;101381.97;5076755;28;20033;-62
2023/09/08 04:55:55;;;;;;;5.40;3.88;;;;;;;23.57;47.33;101375.03;5076195;28;20063;-62
2023/09/08 04:58:21;;;;;;;6.63;4.60;;;;;;;23.59;47.46;101383.88;5075063;28;20032;-62
2023/09/08 05:00:46;;;;;;;10.57;4.85;;;;;;;23.58;47.32;101387.66;5075849;28;20029;-62
2023/09/08 05:03:12;;;;;;;6.18;3.67;;;;;;;23.56;47.29;101378.78;5074379;28;20063;-62
2023/09/08 05:05:38;;;;;;;7.65;4.38;;;;;;;23.58;47.61;101395.88;5075889;28;20408;-63
2023/09/08 05:08:04;;;;;;;6.82;4.30;;;;;;;23.59;47.48;101394.00;5076331;28;20070;-62
2023/09/08 05:10:29;;;;;;;9.52;5.00;;;;;;;23.58;47.66;101393.13;5074787;28;20044;-61
2023/09/08 05:12:55;;;;;;;7.65;4.55;;;;;;;23.59;47.33;101389.34;5072418;28;20063;-62
2023/09/08 05:15:21;;;;;;;10.80;4.80;;;;;;;23.61;47.40;101389.16;5073209;28;20082;-61
2023/09/08 05:17:47;;;;;;;9.00;4.57;;;;;;;23.60;47.46;101393.78;5071763;28;20044;-61
2023/09/08 05:20:12;;;;;;;6.50;4.85;;;;;;;23.61;47.31;101386.41;5071813;28;20412;-61
2023/09/08 05:22:37;;;;;;;9.88;4.40;;;;;;;23.61;47.33;101386.41;5071807;28;20031;-62
2023/09/08 05:25:03;;;;;;;10.65;4.70;;;;;;;23.64;47.26;101389.59;5070641;28;20124;-62
2023/09/08 05:27:29;;;;;;;8.50;4.72;;;;;;;23.69;47.54;101395.31;5071855;28;20060;-62
2023/09/08 05:29:55;;;;;;;8.45;4.45;;;;;;;23.74;47.31;101398.28;5073408;28;20087;-62
2023/09/08 05:32:21;;;;;;;10.45;3.83;;;;;;;23.77;47.80;101397.03;5071899;28;20094;-62
2023/09/08 05:34:46;;;;;;;9.32;4.60;;;;;;;23.83;47.66;101401.72;5071596;28;20492;-63
2023/09/08 05:37:11;;;;;;;6.20;4.20;;;;;;;23.91;46.82;101403.41;5071455;28;20051;-62
2023/09/08 05:39:37;;;;;;;9.27;5.28;;;;;;;23.95;47.18;101397.38;5072780;28;20032;-62
2023/09/08 05:42:03;;;;;;;7.85;4.85;;;;;;;24.07;47.49;101403.09;5071491;28;20035;-63
2023/09/08 05:44:28;;;;;;;7.53;4.35;;;;;;;24.13;47.08;101400.41;5071392;28;20511;-62
2023/09/08 05:46:53;;;;;;;6.60;4.18;;;;;;;24.26;47.04;101405.13;5071451;28;20029;-62
2023/09/08 05:49:19;;;;;;;8.10;4.65;;;;;;;24.33;47.04;101398.63;5054636;28;20041;-62
2023/09/08 05:51:44;;;;;;;9.98;5.18;;;;;;;24.45;47.12;101401.59;5072816;28;20411;-63
2023/09/08 05:54:10;;;;;;;9.73;4.70;;;;;;;24.60;46.92;101410.50;5071498;28;20458;-62
2023/09/08 05:56:37;;;;;;;6.75;4.75;;;;;;;24.75;47.13;101405.69;5072400;28;20032;-63
2023/09/08 05:59:02;;;;;;;11.70;5.05;;;;;;;24.94;47.05;101405.94;5071372;28;20029;-62
2023/09/08 06:01:28;;;;;;;7.25;4.10;;;;;;;25.10;46.99;101400.91;5071198;28;20112;-63
2023/09/08 06:03:54;;;;;;;6.72;4.93;;;;;;;25.29;46.73;101401.97;5072483;28;20495;-63
2023/09/08 06:06:21;;;;;;;6.82;4.75;;;;;;;25.49;46.46;101416.53;5071353;28;20036;-63
2023/09/08 06:08:46;;;;;;;9.02;4.97;;;;;;;25.68;46.57;101406.63;5071230;28;20439;-62
2023/09/08 06:11:12;;;;;;;10.60;5.07;;;;;;;25.84;46.53;101398.75;5072535;28;20033;-64
2023/09/08 06:13:37;;;;;;;7.45;4.78;;;;;;;26.02;45.96;101403.53;5072994;28;20028;-62
2023/09/08 06:16:03;;;;;;;10.63;4.82;;;;;;;26.17;46.40;101404.19;5076085;28;20044;-64
2023/09/08 06:18:30;;;;;;;10.95;4.65;;;;;;;26.33;45.99;101403.69;5074351;28;20464;-63
2023/09/08 06:20:56;;;;;;;10.23;4.60;;;;;;;26.52;46.11;101412.91;5075032;28;20049;-62
2023/09/08 06:23:21;;;;;;;7.10;5.00;;;;;;;26.68;45.38;101411.53;5075240;28;20036;-62
2023/09/08 06:25:46;;;;;;;6.72;4.47;;;;;;;26.85;46.50;101412.75;5076664;28;20044;-63
2023/09/08 06:28:12;;;;;;;15.10;5.07;;;;;;;27.00;45.65;101410.50;5075629;28;20036;-63
2023/09/08 06:30:41;;;;;;;9.15;4.55;;;;;;;27.18;45.70;101419.69;5076783;28;20116;-63
2023/09/08 06:33:06;;;;;;;11.30;5.35;;;;;;;27.32;45.12;101408.56;5076890;28;20572;-63
2023/09/08 06:35:33;;;;;;;7.25;5.18;;;;;;;27.50;45.05;101412.22;5083193;28;20115;-63
2023/09/08 06:37:59;;;;;;;8.10;4.90;;;;;;;27.65;45.63;101409.13;5074672;28;20036;-63
2023/09/08 06:40:25;;;;;;;9.23;4.25;;;;;;;27.84;44.59;101424.59;5076091;28;20036;-63
2023/09/08 06:42:50;;;;;;;8.13;4.45;;;;;;;28.01;45.32;101414.66;5074561;28;20032;-63
2023/09/08 06:45:15;;;;;;;12.93;5.72;;;;;;;28.18;44.14;101410.25;5075790;28;20029;-63
2023/09/08 06:47:41;;;;;;;7.35;4.43;;;;;;;28.39;44.93;101410.88;5074602;28;20179;-63
2023/09/08 06:50:06;;;;;;;7.03;4.70;;;;;;;28.58;43.98;101409.75;5075158;28;20092;-65
2023/09/08 06:52:32;;;;;;;8.75;5.43;;;;;;;28.79;44.39;101414.78;5074298;28;20557;-65
2023/09/08 06:54:57;;;;;;;8.50;5.15;;;;;;;28.99;43.62;101408.94;5057765;28;20518;-64
2023/09/08 06:57:22;;;;;;;8.98;5.13;;;;;;;29.18;43.41;101411.41;5075821;28;20025;-64
2023/09/08 06:59:48;;;;;;;6.60;4.78;;;;;;;29.41;43.93;101417.00;5075753;28;20479;-64
2023/09/08 07:02:13;;;;;;;9.18;4.78;;;;;;;29.62;43.80;101423.00;5074295;28;20055;-64
2023/09/08 07:04:39;;;;;;;7.30;4.85;;;;;;;29.81;42.67;101416.31;5073962;28;20031;-64
2023/09/08 07:07:07;;;;;;;10.73;4.70;;;;;;;30.01;42.55;101412.06;5074609;28;20047;-64
2023/09/08 07:09:33;;;;;;;7.18;4.40;;;;;;;30.21;42.43;101419.13;5074224;28;20104;-63
2023/09/08 07:11:59;;;;;;;7.28;4.78;;;;;;;30.43;42.31;101420.19;5091322;28;20016;-63
2023/09/08 07:14:24;;;;;;;8.68;4.35;;;;;;;30.65;42.01;101425.88;5095641;28;20494;-63
2023/09/08 07:16:50;;;;;;;9.18;4.50;;;;;;;30.88;41.97;101428.50;5096003;28;20028;-63
2023/09/08 07:19:15;;;;;;;10.50;5.10;;;;;;;31.10;41.89;101421.22;5094053;28;20081;-63
2023/09/08 07:21:40;;;;;;;13.20;5.03;;;;;;;31.32;41.21;101429.63;5095942;28;20484;-63
2023/09/08 07:24:06;;;;;;;9.68;4.47;;;;;;;31.52;41.40;101428.03;5080744;28;20035;-62
2023/09/08 07:26:32;;;;;;;9.00;4.97;;;;;;;31.75;40.79;101423.38;5074041;28;20031;-62
2023/09/08 07:28:57;;;;;;;9.10;5.35;;;;;;;31.98;40.82;101424.03;5073834;28;20033;-63
2023/09/08 07:31:23;;;;;;;8.90;5.13;;;;;;;32.20;40.86;101421.28;5075118;28;20016;-62
2023/09/08 07:33:48;;;;;;;6.07;4.03;;;;;;;32.41;40.14;101426.00;5073596;28;20104;-63
2023/09/08 07:36:13;;;;;;;8.27;4.25;;;;;;;32.64;39.46;101427.66;5072528;28;20027;-63
2023/09/08 07:38:39;;;;;;;10.80;4.30;;;;;;;32.86;39.32;101430.44;5074718;28;20463;-63
2023/09/08 07:41:05;;;;;;;6.32;4.35;;;;;;;33.05;39.16;101428.97;5074970;28;20036;-69
2023/09/08 07:43:30;;;;;;;5.05;4.30;;;;;;;33.29;39.45;101427.53;5073664;28;20530;-65
2023/09/08 07:45:56;;;;;;;7.22;4.30;;;;;;;33.48;39.41;101427.94;5056806;28;20048;-65
2023/09/08 07:48:22;;;;;;;12.38;4.68;;;;;;;33.66;37.88;101431.19;5073350;28;20021;-65
2023/09/08 07:50:47;;;;;;;6.95;4.38;;;;;;;33.83;38.72;101426.31;5075059;28;20020;-65
2023/09/08 07:53:12;;;;;;;6.72;4.45;;;;;;;34.01;38.23;101424.16;5073650;28;20040;-65
2023/09/08 07:55:38;;;;;;;7.05;4.22;;;;;;;34.23;37.96;101431.25;5056615;28;20036;-65
2023/09/08 07:58:03;;;;;;;8.15;4.60;;;;;;;34.42;38.00;101428.84;5073239;28;20032;-65
2023/09/08 08:00:29;;;;;;;8.18;4.38;;;;;;;34.62;37.78;101428.94;5074693;28;20086;-65
2023/09/08 08:02:56;;;;;;;5.95;4.50;;;;;;;34.78;37.34;101416.75;5074523;28;20025;-65
2023/09/08 08:05:22;;;;;;;6.40;3.88;;;;;;;34.96;37.21;101426.50;5073111;28;20037;-66
2023/09/08 08:07:48;;;;;;;8.88;4.30;;;;;;;35.17;37.78;101425.47;5056392;28;20117;-65
2023/09/08 08:10:14;;;;;;;6.63;3.83;;;;;;;35.35;37.02;101418.47;5073065;28;20499;-65
2023/09/08 08:12:40;;;;;;;9.13;3.97;;;;;;;35.56;36.98;101411.81;5074215;28;20027;-66
2023/09/08 08:15:06;;;;;;;6.57;4.18;;;;;;;35.75;37.24;101418.47;5074107;28;20036;-64
2023/09/08 08:17:31;;;;;;;8.70;4.00;;;;;;;35.96;36.88;101422.88;5072938;28;20028;-63
2023/09/08 08:20:06;;;;;;;8.05;4.38;;;;;;;36.13;36.31;101417.81;5073320;28;20388;-65
2023/09/08 08:22:31;;;;;;;7.65;3.58;;;;;;;36.29;36.40;101412.19;5073706;28;20036;-65
2023/09/08 08:24:57;;;;;;;6.38;4.97;;;;;;;36.47;35.85;101414.31;5072513;28;20477;-65
2023/09/08 08:27:22;;;;;;;5.53;3.72;;;;;;;36.64;35.97;101420.41;5073965;28;20039;-65
2023/09/08 08:29:47;;;;;;;6.70;4.03;;;;;;;36.80;35.75;101421.97;5073736;28;20035;-64
2023/09/08 08:32:13;;;;;;;10.02;3.78;;;;;;;37.00;35.82;101419.06;5055673;28;20388;-65
2023/09/08 08:34:38;;;;;;;6.97;3.72;;;;;;;37.18;34.89;101426.78;5072255;28;20433;-65
2023/09/08 08:37:04;;;;;;;6.30;3.47;;;;;;;37.37;34.92;101420.44;5073522;28;20033;-65
2023/09/08 08:39:29;;;;;;;9.73;4.10;;;;;;;37.51;34.58;101419.50;5071930;28;20024;-64
2023/09/08 08:41:54;;;;;;;8.07;4.05;;;;;;;37.67;34.31;101420.19;5055664;28;20111;-65
2023/09/08 08:44:20;;;;;;;5.95;3.78;;;;;;;37.83;34.33;101414.13;5072250;28;20033;-65
2023/09/08 08:46:47;;;;;;;6.15;3.60;;;;;;;38.00;33.34;101421.28;5072314;28;20036;-64
2023/09/08 08:49:14;;;;;;;4.57;3.05;;;;;;;38.12;33.20;101411.31;5073595;28;20115;-64
2023/09/08 08:51:42;;;;;;;5.10;3.05;;;;;;;38.29;32.68;101414.47;5072213;28;20116;-63
2023/09/08 08:54:08;;;;;;;4.88;3.08;;;;;;;38.47;33.10;101420.44;5072110;28;20028;-63
2023/09/08 08:56:35;;;;;;;3.10;2.80;;;;;;;38.61;32.37;101412.94;5072215;28;20029;-63
2023/09/08 08:59:01;;;;;;;4.45;2.97;;;;;;;38.78;32.49;101425.31;5072177;28;20062;-63
2023/09/08 09:01:26;;;;;;;7.15;3.45;;;;;;;38.93;31.68;101415.84;5072176;28;20438;-63
2023/09/08 09:03:52;;;;;;;6.68;3.47;;;;;;;39.07;32.02;101422.34;5073232;28;20035;-64
2023/09/08 09:06:18;;;;;;;5.85;3.17;;;;;;;39.18;31.88;101418.25;5055370;28;20032;-64
2023/09/08 09:08:44;;;;;;;5.88;3.30;;;;;;;39.29;31.55;101414.16;5071899;28;20385;-64
2023/09/08 09:11:10;;;;;;;5.30;3.17;;;;;;;39.43;32.05;101426.25;5071560;28;20028;-64
2023/09/08 09:13:35;;;;;;;5.55;3.42;;;;;;;39.54;30.90;101415.66;5073089;28;20040;-64
2023/09/08 09:16:03;;;;;;;5.93;3.58;;;;;;;39.62;30.74;101419.75;5071614;28;20025;-64
2023/09/08 09:18:30;;;;;;;4.38;2.50;;;;;;;39.75;30.88;101421.78;5071836;28;20037;-64
2023/09/08 09:20:58;;;;;;;5.22;2.50;;;;;;;39.85;30.85;101421.56;5055031;28;20064;-64
2023/09/08 09:23:34;;;;;;;6.32;3.00;;;;;;;39.99;30.13;101426.06;5073126;28;20025;-64
2023/09/08 09:26:01;;;;;;;4.30;3.13;;;;;;;40.09;30.26;101422.25;5071490;28;20500;-65
2023/09/08 09:28:28;;;;;;;4.05;2.83;;;;;;;40.19;29.69;101426.81;5071646;28;20518;-64
2023/09/08 09:30:56;;;;;;;4.28;2.88;;;;;;;40.26;29.99;101422.44;5071743;28;20047;-65
2023/09/08 09:33:22;;;;;;;9.85;3.33;;;;;;;40.37;29.59;101418.25;5072650;28;20060;-64
2023/09/08 09:35:52;;;;;;;4.88;2.80;;;;;;;40.57;29.89;101423.47;5071585;28;20071;-64
2023/09/08 09:38:18;;;;;;;7.32;2.92;;;;;;;40.96;29.48;101419.25;5054744;28;20124;-64
2023/09/08 09:40:45;;;;;;;5.22;3.70;;;;;;;41.62;29.16;101413.59;5071470;28;20040;-64
2023/09/08 09:43:11;;;;;;;6.53;3.80;;;;;;;42.55;28.33;101425.59;5071541;28;20029;-65
2023/09/08 09:45:38;;;;;;;6.28;3.15;;;;;;;44.42;26.59;101416.28;5071314;28;20037;-64
2023/09/08 09:48:04;;;;;;;4.25;3.47;;;;;;;45.95;25.20;101423.69;5054465;28;20037;-66
2023/09/08 09:50:36;;;;;;;4.38;3.45;;;;;;;45.38;25.81;101413.19;5069708;28;20127;-63
2023/09/08 09:53:08;;;;;;;12.45;4.78;;;;;;;44.92;26.63;101405.81;5071801;28;20063;-65
2023/09/08 09:55:33;;;;;;;7.70;3.72;;;;;;;44.63;26.59;101411.50;5066099;28;20522;-64
2023/09/08 09:58:01;;;;;;;3.97;3.33;;;;;;;44.52;26.83;101407.41;5071449;28;20017;-64
2023/09/08 10:00:27;;;;;;;4.05;3.40;;;;;;;44.52;26.82;101407.41;5058971;28;20017;-64
2023/09/08 10:02:54;;;;;;;6.05;3.70;;;;;;;44.63;26.76;101396.53;5075726;28;20024;-69
2023/09/08 10:05:19;;;;;;;3.63;3.25;;;;;;;44.75;26.36;101408.75;5058578;28;20441;-64
2023/09/08 10:07:48;;;;;;;6.82;4.35;;;;;;;44.86;26.35;101403.50;5075323;28;20028;-64
2023/09/08 10:10:13;;;;;;;4.57;3.47;;;;;;;45.03;26.06;101404.19;5075426;28;20377;-64
2023/09/08 10:12:40;;;;;;;4.00;3.50;;;;;;;45.22;25.82;101405.66;5076381;28;20024;-65
2023/09/08 10:15:06;;;;;;;5.70;3.35;;;;;;;45.48;26.00;101409.91;5075346;28;20138;-65
2023/09/08 10:17:33;;;;;;;5.45;3.50;;;;;;;45.73;25.97;101407.16;5075530;28;20112;-64
2023/09/08 10:20:00;;;;;;;6.80;4.03;;;;;;;45.97;25.39;101405.16;5075019;28;20497;-65
2023/09/08 10:22:30;;;;;;;6.32;4.05;;;;;;;46.13;25.07;101399.63;5058253;28;20036;-63
2023/09/08 10:24:56;;;;;;;5.63;4.13;;;;;;;46.20;25.19;101397.88;5075057;28;20102;-64
2023/09/08 10:27:23;;;;;;;7.50;4.25;;;;;;;46.28;25.24;101406.59;5075387;28;20028;-64
2023/09/08 10:29:49;;;;;;;6.15;4.05;;;;;;;46.33;25.01;101395.00;5074861;28;20031;-62
2023/09/08 10:32:15;;;;;;;4.32;3.63;;;;;;;46.39;25.24;101397.28;5074717;28;20082;-63
2023/09/08 10:34:42;;;;;;;10.13;4.60;;;;;;;46.45;24.76;101406.38;5075040;28;20055;-63
2023/09/08 10:37:29;;;;;;;8.10;3.47;;;;;;;46.60;24.56;101402.78;5075010;28;20369;-64
2023/09/08 10:39:54;;;;;;;6.78;3.50;;;;;;;46.75;24.39;101391.53;5075062;28;20056;-62
2023/09/08 10:42:21;;;;;;;7.15;4.15;;;;;;;46.93;24.43;101394.91;5074675;28;20059;-62
2023/09/08 10:44:46;;;;;;;4.47;3.60;;;;;;;47.03;24.32;101397.22;5074553;28;20037;-62
2023/09/08 10:47:12;;;;;;;8.10;3.70;;;;;;;47.17;24.84;101400.50;5075794;28;20094;-63
2023/09/08 10:49:38;;;;;;;7.90;4.25;;;;;;;47.22;24.23;101391.69;5074426;28;20260;-63
2023/09/08 10:52:11;;;;;;;6.60;4.20;;;;;;;47.14;23.88;101395.53;5074629;28;20037;-63
2023/09/08 10:54:43;;;;;;;12.07;5.38;;;;;;;47.12;24.21;101392.25;5075670;28;20159;-62
2023/09/08 10:57:27;;;;;;;5.90;4.43;;;;;;;47.16;23.81;101396.00;5074614;28;20119;-63
2023/09/08 11:00:04;;;;;;;6.80;4.60;;;;;;;47.11;23.77;101396.22;5057702;28;20075;-62
2023/09/08 11:02:37;;;;;;;4.45;3.80;;;;;;;47.16;23.58;101393.16;5074240;28;20043;-62
2023/09/08 11:05:08;;;;;;;8.75;3.67;;;;;;;47.22;23.73;101388.88;5057578;28;20520;-62
2023/09/08 11:07:35;;;;;;;8.07;3.92;;;;;;;47.32;24.07;101390.38;5074167;28;20169;-62
2023/09/08 11:10:01;;;;;;;8.02;3.92;;;;;;;47.42;23.49;101388.97;5074077;28;20033;-64
2023/09/08 11:12:27;;;;;;;4.35;3.45;;;;;;;47.44;23.53;101386.63;5074181;28;20036;-63
2023/09/08 11:14:53;;;;;;;4.47;3.00;;;;;;;47.49;23.47;101389.22;5074134;28;20056;-69
2023/09/08 11:17:18;;;;;;;3.65;3.35;;;;;;;47.55;23.27;101385.72;5074135;28;20037;-70
2023/09/08 11:19:50;;;;;;;4.70;3.60;;;;;;;47.64;23.13;101382.72;5075039;28;20051;-70